KHLG/HLG METAR and TAF weather

Enter ICAO airport designator
Station Type Date Time Source
KHLG METAR 2024/04/23 04:53 UTC NOAA

KHLG 230453Z AUTO 00000KT 10SM CLR 08/M03 A3009 RMK AO2 SLP193 T00831028 401610006


Station Type Date Time Source
KHLG Decoded METAR 2024/04/23 04:53 UTC NOAA

WHEELING OHIO COUNTY AIRPORT, WV, United States (KHLG) 40-10N 080-39W 372M
Apr 23, 2024 - 12:53 AM EDT / 2024.04.23 0453 UTC
Wind: Calm:0
Visibility: 10 mile(s):0
Sky conditions: clear
Temperature: 46.9 F (8.3 C)
Dew Point: 27.0 F (-2.8 C)
Relative Humidity: 45%
Pressure (altimeter): 30.09 in. Hg (1018 hPa)
ob: KHLG 230453Z AUTO 00000KT 10SM CLR 08/M03 A3009 RMK AO2 SLP193 T00831028 401610006
cycle: 5

Station Type Date Time Source
KHLG TAF 2024/04/22 18:22 UTC NOAA